createdAt,value
2019-04-20T00:02:29.614Z,101430.64
2019-04-20T00:05:13.104Z,101438.77
2019-04-20T00:08:09.031Z,101438.31
2019-04-20T00:11:17.488Z,101433.25
2019-04-20T00:14:07.173Z,101429.36
2019-04-20T00:17:05.190Z,101423.92
2019-04-20T00:19:57.806Z,101424.33
2019-04-20T00:23:26.887Z,101426.50
2019-04-20T00:26:59.823Z,101427.11
2019-04-20T00:29:52.377Z,101417.83
2019-04-20T00:32:41.334Z,101417.86
2019-04-20T00:35:32.103Z,101419.84
2019-04-20T00:38:25.989Z,101417.44
2019-04-20T00:41:27.677Z,101412.34
2019-04-20T00:44:23.285Z,101414.02
2019-04-20T00:47:34.855Z,101416.20
2019-04-20T00:50:29.791Z,101415.88
2019-04-20T00:53:26.250Z,101414.22
2019-04-20T00:56:11.914Z,101414.34
2019-04-20T00:59:30.228Z,101412.97
2019-04-20T01:02:20.872Z,101413.74
2019-04-20T01:11:54.384Z,101407.39
2019-04-20T01:14:51.674Z,101410.91
2019-04-20T01:17:49.352Z,101411.71
2019-04-20T01:20:41.017Z,101418.00
2019-04-20T01:23:50.755Z,101417.92
2019-04-20T01:26:45.968Z,101414.09
2019-04-20T01:29:48.800Z,101419.36
2019-04-20T01:32:51.708Z,101412.31
2019-04-20T01:35:53.471Z,101415.72
2019-04-20T01:38:43.530Z,101414.16
2019-04-20T01:41:35.123Z,101419.82
2019-04-20T01:44:31.786Z,101425.90
2019-04-20T01:47:36.710Z,101426.70
2019-04-20T01:50:26.065Z,101424.59
2019-04-20T01:53:46.981Z,101424.23
2019-04-20T01:59:52.014Z,101428.19
2019-04-20T02:03:13.075Z,101429.09
2019-04-20T02:06:20.062Z,101425.47
2019-04-20T02:12:10.506Z,101427.90
2019-04-20T02:14:55.237Z,101430.96
2019-04-20T02:17:51.917Z,101431.97
2019-04-20T02:21:07.276Z,101434.30
2019-04-20T02:23:47.497Z,101433.94
2019-04-20T02:26:43.005Z,101436.41
2019-04-20T02:30:04.342Z,101440.16
2019-04-20T02:36:38.211Z,101436.13
2019-04-20T02:43:09.429Z,101442.38
2019-04-20T02:49:00.664Z,101440.22
2019-04-20T02:51:54.034Z,101443.94
2019-04-20T02:54:53.544Z,101442.67
2019-04-20T03:00:38.576Z,101449.03
2019-04-20T03:03:22.579Z,101446.90
2019-04-20T03:06:26.353Z,101442.71
2019-04-20T03:09:32.571Z,101450.03
2019-04-20T03:12:52.215Z,101446.34
2019-04-20T03:15:18.549Z,101450.70
2019-04-20T03:18:12.090Z,101445.12
2019-04-20T03:21:21.272Z,101443.44
2019-04-20T03:31:30.763Z,101440.80
2019-04-20T03:34:40.055Z,101440.28
2019-04-20T03:37:06.826Z,101442.60
2019-04-20T03:40:04.337Z,101437.05
2019-04-20T03:42:40.515Z,101440.87
2019-04-20T03:45:25.426Z,101440.22
2019-04-20T03:48:34.210Z,101439.62
2019-04-20T03:51:41.194Z,101441.60
2019-04-20T03:54:41.608Z,101446.26
2019-04-20T04:02:09.273Z,101449.11
2019-04-20T04:05:04.596Z,101449.11
2019-04-20T04:07:41.551Z,101444.19
2019-04-20T04:10:35.252Z,101447.52
2019-04-20T04:13:29.150Z,101449.33
2019-04-20T04:16:16.397Z,101448.95
2019-04-20T04:19:12.697Z,101450.27
2019-04-20T04:22:21.116Z,101454.77
2019-04-20T04:25:14.818Z,101453.28
2019-04-20T04:28:22.535Z,101451.88
2019-04-20T04:31:22.976Z,101458.31
2019-04-20T04:34:27.924Z,101459.66
2019-04-20T04:37:17.976Z,101464.44
2019-04-20T04:40:27.915Z,101466.34
2019-04-20T04:43:10.183Z,101473.34
2019-04-20T04:45:57.417Z,101469.44
2019-04-20T04:48:51.078Z,101470.59
2019-04-20T04:52:01.075Z,101476.66
2019-04-20T04:54:53.749Z,101479.94
2019-04-20T04:57:49.536Z,101479.18
2019-04-20T05:00:40.834Z,101483.34
2019-04-20T05:04:10.537Z,101482.58
2019-04-20T05:06:43.407Z,101481.72
2019-04-20T05:09:22.635Z,101481.27
2019-04-20T05:12:28.881Z,101485.39
2019-04-20T05:15:22.685Z,101488.59
2019-04-20T05:18:28.881Z,101490.34
2019-04-20T05:21:55.262Z,101495.11
2019-04-20T05:24:58.039Z,101494.16
2019-04-20T05:27:50.878Z,101493.28
2019-04-20T05:30:03.772Z,101491.97
2019-04-20T05:32:44.601Z,101498.48
2019-04-20T05:35:35.456Z,101499.09
2019-04-20T05:38:06.964Z,101495.92
2019-04-20T05:40:32.697Z,101493.43
2019-04-20T05:43:17.894Z,101497.58
2019-04-20T05:45:45.067Z,101496.10
2019-04-20T05:48:18.531Z,101492.11
2019-04-20T05:50:57.685Z,101493.38
2019-04-20T05:53:32.606Z,101495.70
2019-04-20T05:56:00.693Z,101491.65
2019-04-20T05:58:34.305Z,101491.27
2019-04-20T06:01:12.287Z,101497.95
2019-04-20T06:03:38.155Z,101495.93
2019-04-20T06:06:15.445Z,101501.00
2019-04-20T06:08:53.793Z,101498.90
2019-04-20T06:11:23.491Z,101499.93
2019-04-20T06:14:05.384Z,101499.40
2019-04-20T06:16:56.831Z,101493.43
2019-04-20T06:19:39.598Z,101498.63
2019-04-20T06:22:10.289Z,101496.47
2019-04-20T06:25:06.112Z,101502.88
2019-04-20T06:27:38.167Z,101502.62
2019-04-20T06:30:01.439Z,101507.34
2019-04-20T06:33:45.081Z,101505.93
2019-04-20T06:43:46.024Z,101508.25
2019-04-20T06:46:22.517Z,101507.21
2019-04-20T06:48:56.848Z,101508.21
2019-04-20T06:51:30.001Z,101512.56
2019-04-20T06:53:57.616Z,101509.89
2019-04-20T06:56:41.711Z,101509.75
2019-04-20T06:59:21.432Z,101508.74
2019-04-20T07:01:56.829Z,101514.46
2019-04-20T07:04:43.269Z,101515.00
2019-04-20T07:06:56.245Z,101516.36
2019-04-20T07:09:39.921Z,101520.25
2019-04-20T07:11:58.076Z,101518.45
2019-04-20T07:14:31.398Z,101517.51
2019-04-20T07:17:31.614Z,101520.16
2019-04-20T07:20:04.112Z,101517.09
2019-04-20T07:22:46.662Z,101517.66
2019-04-20T07:25:23.139Z,101521.86
2019-04-20T07:27:53.741Z,101523.86
2019-04-20T07:30:24.146Z,101521.48
2019-04-20T07:32:57.983Z,101527.27
2019-04-20T07:35:30.551Z,101530.50
2019-04-20T07:38:23.401Z,101530.75
2019-04-20T07:40:38.170Z,101524.22
2019-04-20T07:43:08.134Z,101522.93
2019-04-20T07:45:36.729Z,101528.14
2019-04-20T07:48:29.564Z,101525.98
2019-04-20T07:50:46.226Z,101523.61
2019-04-20T07:53:20.227Z,101514.84
2019-04-20T07:56:16.555Z,101523.66
2019-04-20T07:58:29.471Z,101521.61
2019-04-20T08:01:21.206Z,101517.67
2019-04-20T08:04:06.004Z,101514.92
2019-04-20T08:06:28.917Z,101518.00
2019-04-20T08:09:07.153Z,101517.64
2019-04-20T08:11:50.049Z,101518.11
2019-04-20T08:14:27.114Z,101520.12
2019-04-20T08:17:09.159Z,101520.91
2019-04-20T08:19:23.434Z,101517.41
2019-04-20T08:22:02.489Z,101518.64
2019-04-20T08:24:27.751Z,101514.61
2019-04-20T08:26:53.049Z,101514.87
2019-04-20T08:29:37.910Z,101513.23
2019-04-20T08:32:24.089Z,101511.66
2019-04-20T08:34:59.538Z,101508.05
2019-04-20T08:37:29.616Z,101514.89
2019-04-20T08:40:09.604Z,101513.02
2019-04-20T08:42:47.698Z,101506.05
2019-04-20T08:45:12.547Z,101512.76
2019-04-20T08:47:51.392Z,101513.49
2019-04-20T08:50:22.424Z,101518.64
2019-04-20T08:53:09.040Z,101513.79
2019-04-20T08:55:23.988Z,101512.13
2019-04-20T08:57:37.949Z,101508.34
2019-04-20T09:00:11.130Z,101504.75
2019-04-20T09:02:52.147Z,101505.11
2019-04-20T09:05:32.937Z,101506.10
2019-04-20T09:08:00.502Z,101506.91
2019-04-20T09:10:45.399Z,101509.62
2019-04-20T09:13:08.374Z,101507.41
2019-04-20T09:15:29.914Z,101506.33
2019-04-20T09:18:13.562Z,101501.92
2019-04-20T09:20:48.726Z,101500.90
2019-04-20T09:23:33.496Z,101502.70
2019-04-20T09:26:10.458Z,101503.59
2019-04-20T09:28:35.387Z,101498.42
2019-04-20T09:31:28.261Z,101499.13
2019-04-20T09:34:05.983Z,101506.72
2019-04-20T09:36:46.018Z,101505.83
2019-04-20T09:39:24.710Z,101506.14
2019-04-20T09:42:07.665Z,101507.13
2019-04-20T09:44:42.693Z,101509.47
2019-04-20T09:47:12.349Z,101506.01
2019-04-20T09:49:55.465Z,101503.35
2019-04-20T09:52:32.196Z,101504.07
2019-04-20T09:55:03.153Z,101505.09
2019-04-20T09:57:37.956Z,101501.13
2019-04-20T10:00:14.656Z,101497.03
2019-04-20T10:02:32.912Z,101496.05
2019-04-20T10:05:02.378Z,101493.42
2019-04-20T10:07:36.015Z,101492.99
2019-04-20T10:10:22.731Z,101484.87
2019-04-20T10:12:43.940Z,101486.98
2019-04-20T10:15:19.487Z,101482.93
2019-04-20T10:17:49.797Z,101488.77
2019-04-20T10:20:28.328Z,101477.52
2019-04-20T10:22:54.451Z,101477.40
2019-04-20T10:25:26.682Z,101476.29
2019-04-20T10:27:58.085Z,101470.47
2019-04-20T10:30:30.574Z,101467.95
2019-04-20T10:33:01.862Z,101475.78
2019-04-20T10:35:33.822Z,101467.80
2019-04-20T10:38:09.673Z,101471.53
2019-04-20T10:40:50.701Z,101469.31
2019-04-20T10:43:14.198Z,101469.66
2019-04-20T10:45:46.831Z,101467.78
2019-04-20T10:48:19.323Z,101463.96
2019-04-20T10:50:50.727Z,101466.88
2019-04-20T10:53:22.091Z,101463.31
2019-04-20T10:55:53.565Z,101463.98
2019-04-20T10:58:25.286Z,101459.05
2019-04-20T11:00:57.691Z,101460.42
2019-04-20T11:03:29.151Z,101459.91
2019-04-20T11:06:00.734Z,101461.66
2019-04-20T11:08:32.907Z,101463.17
2019-04-20T11:11:12.684Z,101455.95
2019-04-20T11:13:37.577Z,101456.48
2019-04-20T11:16:09.009Z,101458.64
2019-04-20T11:18:40.330Z,101452.86
2019-04-20T11:21:11.630Z,101449.88
2019-04-20T11:23:42.952Z,101446.48
2019-04-20T11:26:14.379Z,101441.28
2019-04-20T11:28:46.218Z,101440.02
2019-04-20T11:31:17.593Z,101437.06
2019-04-20T11:33:49.997Z,101435.61
2019-04-20T11:36:21.336Z,101425.04
2019-04-20T11:38:53.060Z,101424.49
2019-04-20T11:41:29.079Z,101425.31
2019-04-20T11:43:59.716Z,101417.91
2019-04-20T11:46:32.364Z,101417.98
2019-04-20T11:49:03.906Z,101409.21
2019-04-20T11:51:35.260Z,101411.40
2019-04-20T11:54:06.700Z,101409.67
2019-04-20T11:56:40.820Z,101405.31
2019-04-20T11:59:12.363Z,101404.46
2019-04-20T12:02:07.678Z,101397.68
2019-04-20T12:04:49.973Z,101392.13
2019-04-20T12:07:17.094Z,101396.13
2019-04-20T12:09:49.367Z,101389.20
2019-04-20T12:12:31.239Z,101383.23
2019-04-20T12:14:54.814Z,101380.62
2019-04-20T12:17:26.273Z,101380.34
2019-04-20T12:19:57.796Z,101376.45
2019-04-20T12:22:30.339Z,101384.05
2019-04-20T12:25:02.550Z,101374.35
2019-04-20T12:27:34.521Z,101371.14
2019-04-20T12:30:08.128Z,101370.80
2019-04-20T12:32:43.946Z,101369.77
2019-04-20T12:35:14.089Z,101368.72
2019-04-20T12:37:47.344Z,101367.30
2019-04-20T12:40:19.884Z,101359.77
2019-04-20T12:42:52.962Z,101359.29
2019-04-20T12:45:25.925Z,101358.81
2019-04-20T12:47:57.633Z,101359.92
2019-04-20T12:50:29.802Z,101361.55
2019-04-20T12:53:02.353Z,101353.55
2019-04-20T12:55:34.699Z,101347.19
2019-04-20T12:58:06.234Z,101346.14
2019-04-20T13:00:49.249Z,101343.23
2019-04-20T13:03:21.435Z,101350.16
2019-04-20T13:05:54.235Z,101342.63
2019-04-20T13:08:33.679Z,101334.89
2019-04-20T13:11:08.684Z,101343.03
2019-04-20T13:14:10.940Z,101333.88
2019-04-20T13:16:42.281Z,101335.28
2019-04-20T13:19:14.884Z,101330.82
2019-04-20T13:21:47.235Z,101321.48
2019-04-20T13:24:18.898Z,101323.19
2019-04-20T13:26:51.002Z,101321.84
2019-04-20T13:29:22.735Z,101324.47
2019-04-20T13:31:56.316Z,101311.25
2019-04-20T13:34:28.394Z,101316.38
2019-04-20T13:37:00.086Z,101310.98
2019-04-20T13:39:31.459Z,101316.84
2019-04-20T13:42:10.548Z,101305.98
2019-04-20T13:44:36.949Z,101297.06
2019-04-20T13:47:09.162Z,101295.69
2019-04-20T13:49:40.979Z,101298.20
2019-04-20T13:52:12.919Z,101298.49
2019-04-20T13:54:45.223Z,101287.60
2019-04-20T13:57:19.802Z,101293.50
2019-04-20T13:59:55.871Z,101286.52
2019-04-20T14:02:44.755Z,101286.68
2019-04-20T14:05:22.844Z,101288.60
2019-04-20T14:07:55.486Z,101283.80
2019-04-20T14:10:27.084Z,101280.94
2019-04-20T14:13:06.121Z,101277.97
2019-04-20T14:15:31.723Z,101268.52
2019-04-20T14:18:03.339Z,101267.47
2019-04-20T14:20:36.135Z,101265.55
2019-04-20T14:23:07.650Z,101259.38
2019-04-20T14:25:38.996Z,101257.05
2019-04-20T14:28:11.350Z,101256.98
2019-04-20T14:30:43.707Z,101255.14
2019-04-20T14:33:15.262Z,101256.09
2019-04-20T14:35:47.008Z,101257.20
2019-04-20T14:38:20.187Z,101246.48
2019-04-20T14:40:52.573Z,101243.13
2019-04-20T14:43:24.923Z,101244.75
2019-04-20T14:45:56.706Z,101237.51
2019-04-20T14:48:28.896Z,101238.42
2019-04-20T14:51:01.523Z,101236.77
2019-04-20T14:53:33.617Z,101237.52
2019-04-20T14:56:05.373Z,101239.23
2019-04-20T14:58:59.921Z,101239.16
2019-04-20T15:01:44.826Z,101227.81
2019-04-20T15:04:18.643Z,101234.20
2019-04-20T15:06:50.549Z,101230.23
2019-04-20T15:09:21.868Z,101227.01
2019-04-20T15:11:53.264Z,101229.27
2019-04-20T15:14:24.927Z,101218.25
2019-04-20T15:16:56.456Z,101217.85
2019-04-20T15:19:45.569Z,101214.11
2019-04-20T15:22:35.931Z,101205.25
2019-04-20T15:25:08.012Z,101216.61
2019-04-20T15:27:42.501Z,101216.02
2019-04-20T15:30:14.091Z,101210.25
2019-04-20T15:32:45.611Z,101211.31
2019-04-20T15:35:19.189Z,101204.22
2019-04-20T15:37:51.063Z,101206.53
2019-04-20T15:40:23.515Z,101205.53
2019-04-20T15:43:05.999Z,101198.78
2019-04-20T15:45:29.212Z,101193.81
2019-04-20T15:48:01.821Z,101199.07
2019-04-20T15:50:33.905Z,101198.38
2019-04-20T15:53:05.944Z,101187.69
2019-04-20T15:55:39.543Z,101194.84
2019-04-20T15:58:10.476Z,101194.16
2019-04-20T16:00:42.529Z,101196.33
2019-04-20T16:03:21.431Z,101191.53
2019-04-20T16:06:18.943Z,101191.84
2019-04-20T16:08:54.456Z,101189.39
2019-04-20T16:11:26.639Z,101185.28
2019-04-20T16:13:59.710Z,101190.97
2019-04-20T16:16:31.976Z,101185.31
2019-04-20T16:19:10.698Z,101190.10
2019-04-20T16:21:37.460Z,101186.42
2019-04-20T16:24:18.980Z,101188.38
2019-04-20T16:27:13.625Z,101186.42
2019-04-20T16:29:45.603Z,101183.64
2019-04-20T16:32:18.381Z,101185.02
2019-04-20T16:34:50.704Z,101182.06
2019-04-20T16:37:22.417Z,101181.33
2019-04-20T16:39:54.645Z,101175.48
2019-04-20T16:42:26.650Z,101175.05
2019-04-20T16:44:59.147Z,101174.64
2019-04-20T16:47:30.528Z,101175.37
2019-04-20T16:50:01.862Z,101168.04
2019-04-20T16:52:33.225Z,101170.65
2019-04-20T16:55:06.048Z,101168.41
2019-04-20T16:57:37.758Z,101171.38
2019-04-20T17:00:09.591Z,101164.10
2019-04-20T17:02:40.929Z,101159.12
2019-04-20T17:05:13.477Z,101161.34
2019-04-20T17:07:46.919Z,101157.80
2019-04-20T17:10:20.186Z,101161.92
2019-04-20T17:12:51.876Z,101161.20
2019-04-20T17:15:23.590Z,101158.36
2019-04-20T17:17:57.046Z,101157.41
2019-04-20T17:20:28.916Z,101154.56
2019-04-20T17:23:02.114Z,101156.59
2019-04-20T17:25:34.406Z,101162.30
2019-04-20T17:28:28.901Z,101159.73
2019-04-20T17:31:17.676Z,101163.70
2019-04-20T17:34:02.598Z,101158.14
2019-04-20T17:36:30.768Z,101162.18
2019-04-20T17:39:04.661Z,101168.03
2019-04-20T17:41:48.779Z,101161.27
2019-04-20T17:44:20.999Z,101163.13
2019-04-20T17:46:50.452Z,101171.63
2019-04-20T17:49:28.103Z,101170.44
2019-04-20T17:52:05.185Z,101165.84
2019-04-20T17:54:39.790Z,101165.84
2019-04-20T17:57:13.073Z,101168.46
2019-04-20T17:59:52.977Z,101169.49
2019-04-20T18:02:58.592Z,101163.25
2019-04-20T18:05:39.393Z,101171.47
2019-04-20T18:08:16.508Z,101166.45
2019-04-20T18:10:38.833Z,101179.91
2019-04-20T18:13:09.478Z,101172.95
2019-04-20T18:15:48.850Z,101175.26
2019-04-20T18:18:35.336Z,101174.64
2019-04-20T18:21:10.862Z,101175.13
2019-04-20T18:23:46.276Z,101179.64
2019-04-20T18:26:41.996Z,101178.98
2019-04-20T18:29:30.829Z,101182.34
2019-04-20T18:31:33.786Z,101177.55
2019-04-20T18:34:14.558Z,101176.56
2019-04-20T18:36:44.607Z,101179.06
2019-04-20T18:39:17.664Z,101170.77
2019-04-20T18:41:52.203Z,101178.28
2019-04-20T18:44:27.996Z,101180.39
2019-04-20T18:47:21.566Z,101178.12
2019-04-20T18:49:43.139Z,101178.08
2019-04-20T18:52:02.008Z,101176.87
2019-04-20T18:54:39.065Z,101182.97
2019-04-20T18:57:11.128Z,101183.16
2019-04-20T18:59:42.872Z,101182.41
2019-04-20T19:02:20.044Z,101179.69
2019-04-20T19:04:46.016Z,101180.61
2019-04-20T19:07:17.605Z,101187.34
2019-04-20T19:10:00.358Z,101179.27
2019-04-20T19:12:36.679Z,101188.11
2019-04-20T19:15:30.588Z,101188.39
2019-04-20T19:18:05.728Z,101188.77
2019-04-20T19:20:30.725Z,101184.72
2019-04-20T19:23:02.257Z,101194.72
2019-04-20T19:25:37.472Z,101194.38
2019-04-20T19:28:07.519Z,101200.63
2019-04-20T19:30:49.809Z,101197.84
2019-04-20T19:33:30.423Z,101196.73
2019-04-20T19:35:57.368Z,101201.09
2019-04-20T19:38:25.764Z,101202.11
2019-04-20T19:41:01.749Z,101203.79
2019-04-20T19:43:31.553Z,101207.99
2019-04-20T19:46:37.907Z,101203.64
2019-04-20T19:48:40.507Z,101207.13
2019-04-20T19:51:29.539Z,101211.33
2019-04-20T19:54:01.015Z,101211.97
2019-04-20T19:56:31.003Z,101208.06
2019-04-20T19:59:01.140Z,101209.82
2019-04-20T20:01:17.738Z,101209.38
2019-04-20T20:03:56.300Z,101213.11
2019-04-20T20:06:29.388Z,101202.14
2019-04-20T20:09:01.869Z,101208.94
2019-04-20T20:11:34.084Z,101210.11
2019-04-20T20:14:06.131Z,101206.05
2019-04-20T20:16:56.228Z,101202.87
2019-04-20T20:19:21.042Z,101201.34
2019-04-20T20:21:59.062Z,101203.56
2019-04-20T20:24:17.396Z,101204.43
2019-04-20T20:26:53.372Z,101206.53
2019-04-20T20:29:32.716Z,101200.98
2019-04-20T20:32:08.505Z,101203.64
2019-04-20T20:34:34.522Z,101204.33
2019-04-20T20:37:08.507Z,101201.30
2019-04-20T20:39:36.649Z,101199.55
2019-04-20T20:42:21.953Z,101201.58
2019-04-20T20:44:48.634Z,101203.08
2019-04-20T20:47:40.016Z,101201.84
2019-04-20T20:50:08.287Z,101204.61
2019-04-20T20:52:39.373Z,101210.22
2019-04-20T20:54:59.107Z,101207.36
2019-04-20T20:57:37.185Z,101209.05
2019-04-20T21:00:03.717Z,101203.05
2019-04-20T21:02:42.100Z,101204.29
2019-04-20T21:05:04.328Z,101204.27
2019-04-20T21:07:36.519Z,101201.01
2019-04-20T21:10:10.276Z,101205.88
2019-04-20T21:12:46.504Z,101203.82
2019-04-20T21:15:22.157Z,101205.02
2019-04-20T21:18:11.103Z,101203.30
2019-04-20T21:20:44.432Z,101206.79
2019-04-20T21:23:07.163Z,101204.49
2019-04-20T21:25:41.717Z,101207.39
2019-04-20T21:28:06.946Z,101207.48
2019-04-20T21:30:43.234Z,101202.13
2019-04-20T21:33:13.061Z,101200.55
2019-04-20T21:35:48.571Z,101202.54
2019-04-20T21:38:18.956Z,101203.83
2019-04-20T21:41:00.664Z,101211.19
2019-04-20T21:43:29.922Z,101206.65
2019-04-20T21:46:02.851Z,101198.95
2019-04-20T21:48:44.106Z,101201.22
2019-04-20T21:51:19.041Z,101202.29
2019-04-20T21:53:37.109Z,101201.89
2019-04-20T21:56:10.188Z,101203.36
2019-04-20T21:58:48.303Z,101197.36
2019-04-20T22:01:25.215Z,101197.63
2019-04-20T22:03:50.267Z,101193.53
2019-04-20T22:06:22.436Z,101195.27
2019-04-20T22:08:57.802Z,101202.26
2019-04-20T22:11:27.831Z,101199.13
2019-04-20T22:14:03.060Z,101195.02
2019-04-20T22:16:38.894Z,101195.67
2019-04-20T22:19:22.343Z,101189.82
2019-04-20T22:21:50.350Z,101191.70
2019-04-20T22:24:29.797Z,101189.59
2019-04-20T22:26:54.952Z,101188.50
2019-04-20T22:29:18.354Z,101192.59
2019-04-20T22:31:56.721Z,101194.80
2019-04-20T22:34:25.959Z,101187.06
2019-04-20T22:36:56.075Z,101188.45
2019-04-20T22:39:39.096Z,101184.48
2019-04-20T22:42:08.935Z,101182.69
2019-04-20T22:44:37.009Z,101184.16
2019-04-20T22:47:13.907Z,101181.69
2019-04-20T22:49:51.588Z,101177.84
2019-04-20T22:52:30.389Z,101173.95
2019-04-20T22:55:12.536Z,101177.03
2019-04-20T22:57:36.291Z,101168.52
2019-04-20T23:00:02.669Z,101163.59
2019-04-20T23:02:28.340Z,101158.36
2019-04-20T23:05:00.698Z,101163.13
2019-04-20T23:07:32.693Z,101154.52
2019-04-20T23:10:05.427Z,101155.39
2019-04-20T23:12:40.032Z,101153.64
2019-04-20T23:15:12.064Z,101153.73
2019-04-20T23:17:46.827Z,101147.24
2019-04-20T23:20:24.618Z,101147.87
2019-04-20T23:22:51.334Z,101143.66
2019-04-20T23:25:23.010Z,101141.50
2019-04-20T23:28:00.552Z,101139.80
2019-04-20T23:30:31.422Z,101132.39
2019-04-20T23:33:00.457Z,101132.42
2019-04-20T23:35:33.365Z,101126.20
2019-04-20T23:38:11.229Z,101125.20
2019-04-20T23:40:38.014Z,101114.17
2019-04-20T23:43:23.403Z,101115.16
2019-04-20T23:46:29.633Z,101107.66
2019-04-20T23:49:24.106Z,101095.58
2019-04-20T23:52:11.880Z,101097.58
2019-04-20T23:54:27.385Z,101096.09
2019-04-20T23:56:55.674Z,101097.78
2019-04-20T23:59:34.366Z,101086.39
